Time;durP1;ratioP1;P1;durP2;ratioP2;P2;SDS_P1;SDS_P2;PMS_P1;PMS_P2;Temp;Humidity;BMP_temperature;BMP_pressure;BME280_temperature;BME280_humidity;BME280_pressure;Samples;Min_cycle;Max_cycle;Signal;HPM_P1;HPM_P2
2024/03/26 00:03:02;;;;;;;25.90;18.40;;;;;;;5.92;70.61;98234.15;233421;181;137595;-57
2024/03/26 00:08:05;;;;;;;30.00;19.20;;;;;;;5.91;70.39;98232.96;233412;181;137618;-58
2024/03/26 00:13:08;;;;;;;30.30;18.90;;;;;;;5.78;70.37;98230.17;232970;181;153939;-57
2024/03/26 00:18:11;;;;;;;31.90;20.40;;;;;;;5.71;70.54;98232.48;232800;181;139119;-57
2024/03/26 00:23:16;;;;;;;37.90;24.20;;;;;;;5.72;70.83;98236.83;233471;181;138347;-58
2024/03/26 00:28:19;;;;;;;40.50;25.70;;;;;;;5.73;71.09;98232.02;232470;181;154237;-57
2024/03/26 00:33:22;;;;;;;41.40;27.60;;;;;;;5.72;71.08;98231.22;233193;180;142154;-59
2024/03/26 00:38:25;;;;;;;39.20;25.80;;;;;;;5.70;71.12;98229.71;233227;181;138165;-57
2024/03/26 00:43:28;;;;;;;39.40;22.60;;;;;;;5.69;71.03;98234.67;232990;181;153365;-56
2024/03/26 00:48:31;;;;;;;35.90;23.10;;;;;;;5.66;70.89;98236.80;233381;181;137801;-58
2024/03/26 00:53:34;;;;;;;36.50;23.60;;;;;;;5.59;70.75;98239.34;232553;181;142589;-59
2024/03/26 00:58:37;;;;;;;39.40;24.70;;;;;;;5.47;70.74;98243.84;233388;181;153329;-59
2024/03/26 01:03:39;;;;;;;38.40;23.30;;;;;;;5.40;71.06;98243.66;233263;181;137840;-58
2024/03/26 01:08:43;;;;;;;35.90;21.90;;;;;;;5.47;71.44;98246.13;233448;181;138271;-59
2024/03/26 01:13:45;;;;;;;42.00;25.40;;;;;;;5.61;71.43;98250.63;233366;180;153259;-57
2024/03/26 01:18:53;;;;;;;40.90;24.60;;;;;;;5.69;71.06;98245.27;233417;177;137760;-58
2024/03/26 01:23:56;;;;;;;36.70;23.80;;;;;;;5.80;71.07;98247.30;233393;181;137200;-58
2024/03/26 01:28:59;;;;;;;38.00;23.70;;;;;;;5.83;70.42;98247.69;233408;181;152973;-57
2024/03/26 01:34:02;;;;;;;35.20;22.50;;;;;;;5.77;70.01;98258.02;233427;181;137662;-58
2024/03/26 01:39:05;;;;;;;36.40;22.50;;;;;;;5.70;69.38;98254.73;233140;181;138665;-58
2024/03/26 01:44:08;;;;;;;34.00;21.40;;;;;;;5.54;69.59;98262.46;232871;169;153394;-57
2024/03/26 01:49:12;;;;;;;32.10;20.90;;;;;;;5.34;69.77;98263.88;232739;181;138705;-57
2024/03/26 01:54:15;;;;;;;35.70;22.40;;;;;;;5.22;70.28;98264.54;233302;174;138635;-58
2024/03/26 01:59:19;;;;;;;35.80;21.50;;;;;;;5.16;70.30;98266.22;233466;181;154024;-58
2024/03/26 02:04:22;;;;;;;34.50;22.00;;;;;;;5.08;70.22;98266.29;233368;178;138039;-58
2024/03/26 02:09:24;;;;;;;32.70;20.50;;;;;;;5.00;70.34;98264.27;233009;173;138700;-58
2024/03/26 02:14:27;;;;;;;37.10;22.10;;;;;;;4.92;70.45;98260.66;233451;180;154468;-58
2024/03/26 02:19:31;;;;;;;32.30;22.00;;;;;;;4.84;70.41;98266.29;233526;180;137583;-58
2024/03/26 02:24:34;;;;;;;37.40;22.50;;;;;;;4.80;70.51;98268.83;233287;180;137688;-56
2024/03/26 02:29:36;;;;;;;34.60;21.80;;;;;;;4.82;70.22;98267.99;233352;180;153268;-58
2024/03/26 02:34:40;;;;;;;36.60;24.60;;;;;;;4.86;70.13;98264.64;233606;180;137835;-59
2024/03/26 02:39:42;;;;;;;35.60;23.50;;;;;;;4.79;70.02;98264.64;233082;180;148729;-59
2024/03/26 02:44:45;;;;;;;34.70;22.60;;;;;;;4.67;70.27;98266.65;233593;180;154289;-58
2024/03/26 02:49:48;;;;;;;34.40;23.40;;;;;;;4.61;70.39;98264.52;233576;180;138405;-58
2024/03/26 02:54:51;;;;;;;38.60;24.30;;;;;;;4.58;70.38;98264.47;233587;180;137129;-58
2024/03/26 02:59:54;;;;;;;35.00;21.90;;;;;;;4.62;70.40;98265.70;233524;180;153295;-58
2024/03/26 03:04:57;;;;;;;36.40;22.70;;;;;;;4.57;70.27;98266.30;232834;169;137318;-58
2024/03/26 03:10:00;;;;;;;34.00;22.90;;;;;;;4.52;70.21;98262.87;233476;180;138138;-56
2024/03/26 03:15:04;;;;;;;35.80;22.40;;;;;;;4.48;70.26;98267.23;233380;181;153150;-56
2024/03/26 03:20:14;;;;;;;35.90;22.40;;;;;;;4.38;70.14;98266.34;233408;181;138274;-58
2024/03/26 03:25:17;;;;;;;39.00;24.60;;;;;;;4.30;70.13;98269.20;232977;180;141172;-59
2024/03/26 03:30:19;;;;;;;36.70;23.70;;;;;;;4.24;70.35;98272.11;233460;181;250592;-59
2024/03/26 03:35:22;;;;;;;34.50;22.50;;;;;;;4.17;70.56;98271.25;233541;181;138382;-60
2024/03/26 03:40:25;;;;;;;32.60;21.80;;;;;;;4.12;70.57;98273.79;233571;180;141066;-59
2024/03/26 03:45:28;;;;;;;31.40;21.80;;;;;;;4.12;70.58;98276.23;233522;180;154755;-59
2024/03/26 03:50:31;;;;;;;36.40;23.00;;;;;;;4.14;70.39;98275.08;233419;181;139615;-57
2024/03/26 03:55:34;;;;;;;37.10;24.40;;;;;;;4.19;70.21;98278.52;233025;181;139055;-60
2024/03/26 04:00:37;;;;;;;41.50;24.70;;;;;;;4.17;69.95;98281.59;233495;177;154224;-60
2024/03/26 04:05:40;;;;;;;35.20;22.20;;;;;;;4.12;69.66;98284.64;233510;180;137661;-59
2024/03/26 04:10:46;;;;;;;33.70;23.00;;;;;;;4.01;69.73;98286.76;232929;181;138742;-59
2024/03/26 04:15:48;;;;;;;;;;;;;;;3.96;69.66;98281.74;233555;173;154031;-59
2024/03/26 04:20:51;;;;;;;37.30;23.90;;;;;;;3.93;69.81;98288.67;233550;181;137634;-60
2024/03/26 04:25:58;;;;;;;34.10;23.50;;;;;;;3.91;69.98;98285.48;233444;180;137818;-58
2024/03/26 04:31:02;;;;;;;36.10;24.20;;;;;;;3.87;70.27;98287.73;233459;181;153653;-57
2024/03/26 04:36:05;;;;;;;35.60;23.30;;;;;;;3.86;70.39;98293.44;233204;181;138739;-59
2024/03/26 04:41:08;;;;;;;37.10;23.90;;;;;;;3.84;70.54;98289.48;233098;180;138284;-59
2024/03/26 04:46:11;;;;;;;36.70;23.70;;;;;;;3.83;70.67;98288.67;233513;181;154663;-58
2024/03/26 04:51:14;;;;;;;34.60;23.60;;;;;;;3.85;70.83;98288.58;233254;180;137702;-58
2024/03/26 04:56:17;;;;;;;655.30;477.00;;;;;;;3.90;71.78;98289.22;233498;181;139392;-61
2024/03/26 05:01:20;;;;;;;61.90;37.10;;;;;;;4.12;72.52;98284.33;232074;181;154344;-58
2024/03/26 05:06:23;;;;;;;220.00;142.20;;;;;;;4.24;72.31;98284.21;233461;180;137697;-60
2024/03/26 05:11:26;;;;;;;49.20;31.10;;;;;;;4.39;73.59;98286.86;233517;180;138186;-59
2024/03/26 05:16:30;;;;;;;46.60;28.10;;;;;;;4.49;71.90;98290.73;232800;181;153571;-58
2024/03/26 05:21:33;;;;;;;38.00;25.50;;;;;;;4.54;71.46;98291.55;233482;180;137920;-58
2024/03/26 05:26:36;;;;;;;35.70;24.20;;;;;;;4.54;71.15;98291.55;233187;180;138681;-57
2024/03/26 05:31:39;;;;;;;36.90;25.40;;;;;;;4.57;71.02;98295.66;233532;169;153310;-59
2024/03/26 05:36:42;;;;;;;36.30;24.50;;;;;;;4.59;71.03;98292.55;233255;181;138735;-58
2024/03/26 05:41:45;;;;;;;36.20;24.30;;;;;;;4.59;71.23;98303.09;233437;181;139160;-59
2024/03/26 05:46:49;;;;;;;32.90;23.50;;;;;;;4.59;71.57;98303.79;233445;180;154634;-59
2024/03/26 05:51:52;;;;;;;34.00;22.60;;;;;;;4.65;71.83;98299.95;233474;180;138175;-60
2024/03/26 05:56:55;;;;;;;109.30;79.80;;;;;;;4.76;71.99;98296.23;233492;181;138510;-61
2024/03/26 06:01:58;;;;;;;37.70;26.40;;;;;;;5.07;73.44;98298.50;233452;181;153867;-59
2024/03/26 06:07:01;;;;;;;35.80;23.50;;;;;;;5.36;71.86;98292.30;233477;181;138509;-56
2024/03/26 06:12:04;;;;;;;32.70;23.20;;;;;;;5.41;71.16;98292.33;233565;180;137737;-60
2024/03/26 06:17:07;;;;;;;311.00;222.60;;;;;;;5.46;71.37;98287.50;233273;181;154278;-61
2024/03/26 06:22:10;;;;;;;38.70;27.80;;;;;;;5.61;72.56;98282.27;233472;180;138340;-58
2024/03/26 06:27:13;;;;;;;26.60;19.70;;;;;;;5.73;71.79;98283.61;233215;180;138634;-59
2024/03/26 06:32:16;;;;;;;30.10;18.10;;;;;;;5.79;71.86;98282.75;233512;181;154148;-56
2024/03/26 06:37:19;;;;;;;27.50;17.30;;;;;;;5.90;72.03;98279.67;233470;181;140071;-57
2024/03/26 06:42:22;;;;;;;20.20;14.70;;;;;;;6.05;72.14;98280.11;233543;181;137904;-57
2024/03/26 06:47:25;;;;;;;23.70;14.70;;;;;;;6.21;72.14;98280.44;233505;181;153820;-58
2024/03/26 06:52:28;;;;;;;510.80;329.30;;;;;;;6.42;71.88;98283.11;233476;180;137599;-55
2024/03/26 06:57:32;;;;;;;33.80;19.00;;;;;;;6.72;72.60;98280.14;233453;179;138464;-59
2024/03/26 07:02:38;;;;;;;25.60;15.60;;;;;;;6.98;71.16;98281.60;233536;181;153370;-56
2024/03/26 07:07:41;;;;;;;20.40;14.20;;;;;;;7.16;70.39;98285.09;233415;181;137258;-58
2024/03/26 07:12:44;;;;;;;26.90;14.50;;;;;;;7.32;70.08;98279.58;233492;181;138649;-58
2024/03/26 07:17:47;;;;;;;25.20;14.40;;;;;;;7.48;69.55;98279.48;233496;177;153137;-57
2024/03/26 07:22:50;;;;;;;17.80;12.60;;;;;;;7.62;69.10;98278.76;233502;181;141958;-58
2024/03/26 07:27:53;;;;;;;22.20;11.60;;;;;;;7.75;68.60;98281.63;232935;181;138747;-59
2024/03/26 07:32:56;;;;;;;21.60;10.00;;;;;;;7.90;68.07;98275.05;233047;181;153064;-58
2024/03/26 07:38:00;;;;;;;24.70;10.40;;;;;;;8.06;67.16;98271.91;233555;180;137534;-57
2024/03/26 07:43:04;;;;;;;12.90;7.10;;;;;;;8.21;66.69;98272.54;233517;180;137797;-58
2024/03/26 07:48:23;;;;;;;8.90;5.40;;;;;;;8.45;65.94;98264.81;233535;181;154052;-57
2024/03/26 07:53:28;;;;;;;;;;;;;;;8.68;64.56;98264.51;232937;173;138714;-56
2024/03/26 07:58:31;;;;;;;7.40;5.50;;;;;;;8.83;63.16;98256.98;233570;181;138227;-58
2024/03/26 08:03:35;;;;;;;9.10;5.90;;;;;;;8.96;62.76;98250.73;233456;180;153797;-58
2024/03/26 08:08:38;;;;;;;9.70;6.20;;;;;;;9.10;62.32;98244.34;233501;180;137134;-59
2024/03/26 08:13:41;;;;;;;15.30;5.50;;;;;;;9.20;62.52;98242.80;233483;181;137127;-56
2024/03/26 08:18:44;;;;;;;12.20;5.00;;;;;;;9.30;62.15;98236.92;233490;181;153983;-57
2024/03/26 08:23:47;;;;;;;14.30;5.80;;;;;;;9.44;61.81;98240.04;233518;180;137583;-58
2024/03/26 08:28:51;;;;;;;21.80;7.00;;;;;;;9.61;61.79;98232.30;233475;180;138005;-57
2024/03/26 08:33:55;;;;;;;14.20;6.70;;;;;;;9.77;61.22;98226.36;233222;181;155021;-59
2024/03/26 08:38:58;;;;;;;17.10;6.70;;;;;;;9.91;60.44;98222.52;233436;181;138010;-56
2024/03/26 08:44:01;;;;;;;12.60;7.90;;;;;;;10.04;60.20;98213.24;233126;177;139109;-55
2024/03/26 08:49:04;;;;;;;15.50;7.40;;;;;;;10.22;60.08;98211.18;233049;181;153801;-58
2024/03/26 08:54:07;;;;;;;25.50;7.80;;;;;;;10.37;60.12;98205.00;233436;181;138155;-59
2024/03/26 08:59:10;;;;;;;19.70;8.80;;;;;;;10.47;59.65;98203.34;232983;181;138754;-58
2024/03/26 09:04:13;;;;;;;18.90;8.70;;;;;;;10.64;59.47;98210.26;233579;179;153307;-56
2024/03/26 09:09:16;;;;;;;12.00;7.00;;;;;;;10.81;59.23;98205.71;232962;170;139505;-55
2024/03/26 09:14:19;;;;;;;13.40;8.00;;;;;;;10.94;59.06;98202.40;233632;179;137650;-57
2024/03/26 09:19:22;;;;;;;18.20;9.30;;;;;;;11.11;59.47;98195.79;233716;179;153192;-58
2024/03/26 09:24:25;;;;;;;16.70;8.40;;;;;;;11.28;58.88;98194.08;233748;179;138331;-59
2024/03/26 09:29:38;;;;;;;13.30;7.40;;;;;;;11.46;58.14;98190.58;233819;179;137718;-58
2024/03/26 09:34:41;;;;;;;15.40;7.10;;;;;;;11.60;57.84;98183.55;233535;179;153736;-58
2024/03/26 09:39:46;;;;;;;13.50;5.70;;;;;;;11.80;56.89;98175.92;233823;179;141971;-59
2024/03/26 09:44:49;;;;;;;13.80;6.00;;;;;;;12.02;55.90;98169.55;233689;180;138142;-57
2024/03/26 09:50:14;;;;;;;11.80;6.00;;;;;;;12.30;55.18;98166.89;232878;179;153081;-55
2024/03/26 09:55:19;;;;;;;15.40;5.50;;;;;;;12.45;54.75;98159.95;233259;180;139017;-58
2024/03/26 10:00:22;;;;;;;82.20;46.20;;;;;;;12.64;55.44;98152.14;233145;180;137838;-58
2024/03/26 10:05:25;;;;;;;11.20;4.70;;;;;;;13.13;53.68;98145.96;233436;180;153145;-56
2024/03/26 10:10:28;;;;;;;16.10;5.10;;;;;;;13.34;51.69;98135.23;233559;180;137328;-56
2024/03/26 10:15:34;;;;;;;13.20;6.40;;;;;;;13.49;51.25;98130.92;233414;180;138647;-56
2024/03/26 10:20:37;;;;;;;14.40;5.20;;;;;;;13.65;51.03;98127.91;233307;180;153378;-58
2024/03/26 10:25:40;;;;;;;14.80;4.70;;;;;;;13.88;51.41;98123.50;233493;178;139273;-58
2024/03/26 10:30:43;;;;;;;9.40;4.20;;;;;;;14.14;49.83;98118.05;233548;177;137777;-58
2024/03/26 10:35:53;;;;;;;8.70;4.10;;;;;;;14.37;49.81;98121.30;233638;173;153604;-57
2024/03/26 10:41:02;;;;;;;9.50;4.30;;;;;;;14.60;49.13;98118.45;233622;180;137646;-57
2024/03/26 10:46:05;;;;;;;10.60;3.90;;;;;;;14.78;47.92;98116.45;233502;180;138160;-55
2024/03/26 10:51:09;;;;;;;5.20;2.80;;;;;;;14.96;47.09;98112.49;233663;180;154001;-57
2024/03/26 10:56:12;;;;;;;7.60;3.60;;;;;;;15.20;46.48;98099.58;233563;180;138006;-55
2024/03/26 11:01:16;;;;;;;62.60;42.00;;;;;;;15.52;47.56;98090.39;233633;180;138142;-58
2024/03/26 11:14:06;;;;;;;7.10;2.70;;;;;;;16.05;44.10;98071.77;231700;191;717520;-58
2024/03/26 11:19:25;;;;;;;4.30;2.20;;;;;;;16.31;43.59;98064.36;233279;185;136495;-57
2024/03/26 11:24:35;;;;;;;3.90;1.80;;;;;;;16.56;41.97;98052.84;233332;184;136763;-58
2024/03/26 11:29:40;;;;;;;6.40;1.90;;;;;;;16.79;42.00;98037.39;233377;182;147560;-58
2024/03/26 11:34:44;;;;;;;3.10;1.60;;;;;;;16.99;40.05;98041.07;233405;182;137288;-57
2024/03/26 11:39:48;;;;;;;5.70;1.80;;;;;;;17.19;39.34;98036.11;232977;180;136031;-58
2024/03/26 11:45:03;;;;;;;2.40;1.60;;;;;;;17.34;37.77;98024.08;233376;182;147880;-57
2024/03/26 11:50:08;;;;;;;1.50;1.20;;;;;;;17.43;35.85;98022.98;233201;183;137072;-56
2024/03/26 11:55:11;;;;;;;3.30;1.10;;;;;;;17.33;34.72;98018.16;233127;183;137194;-56
2024/03/26 12:00:14;;;;;;;4.90;1.60;;;;;;;17.30;35.35;98010.05;233473;182;148658;-57
2024/03/26 12:05:17;;;;;;;3.70;1.40;;;;;;;17.36;35.43;98009.17;232960;183;136922;-57
2024/03/26 12:10:20;;;;;;;2.10;1.10;;;;;;;17.24;34.81;97996.71;233394;179;136680;-56
2024/03/26 12:15:24;;;;;;;5.30;1.30;;;;;;;17.06;35.35;97988.52;233311;182;149579;-57
2024/03/26 12:20:27;;;;;;;7.10;1.20;;;;;;;17.38;35.57;97971.34;232866;179;137136;-61
2024/03/26 12:25:30;;;;;;;2.40;1.20;;;;;;;17.69;34.18;97966.20;233659;180;136937;-60
2024/03/26 12:30:34;;;;;;;1.90;1.30;;;;;;;18.07;33.62;97957.07;233565;169;151491;-61
2024/03/26 12:35:37;;;;;;;3.30;1.30;;;;;;;18.32;32.22;97937.02;233509;170;137458;-65
2024/03/26 12:40:40;;;;;;;7.60;1.60;;;;;;;18.44;31.39;97928.54;233610;180;137540;-62
2024/03/26 12:45:43;;;;;;;2.70;1.40;;;;;;;18.61;32.12;97927.88;233448;177;150255;-62
2024/03/26 12:50:47;;;;;;;5.30;2.80;;;;;;;18.77;34.03;97923.08;233533;180;138269;-62
2024/03/26 12:55:49;;;;;;;2.60;1.10;;;;;;;19.06;32.74;97909.92;233657;180;139595;-63
2024/03/26 13:00:53;;;;;;;4.50;1.40;;;;;;;19.20;31.46;97894.14;233686;180;150213;-63
2024/03/26 13:05:56;;;;;;;4.70;1.70;;;;;;;18.81;30.68;97891.98;233589;180;136368;-62
2024/03/26 13:11:03;;;;;;;5.90;1.20;;;;;;;18.95;30.76;97889.70;233632;180;138352;-63
2024/03/26 13:16:07;;;;;;;2.90;1.10;;;;;;;19.07;30.02;97883.90;233623;180;149346;-61
2024/03/26 13:21:11;;;;;;;4.10;1.30;;;;;;;19.29;29.55;97884.16;233563;180;136174;-61
2024/03/26 13:26:14;;;;;;;1.30;0.90;;;;;;;19.46;28.68;97869.33;233544;180;136433;-61
2024/03/26 13:31:17;;;;;;;1.90;1.30;;;;;;;19.77;28.64;97861.55;233594;180;149547;-59
2024/03/26 13:36:21;;;;;;;4.60;1.10;;;;;;;20.01;28.59;97851.89;233591;180;139146;-58
2024/03/26 13:41:24;;;;;;;4.30;1.20;;;;;;;20.12;28.27;97845.33;233353;180;137023;-63
2024/03/26 13:46:27;;;;;;;9.00;1.40;;;;;;;20.25;27.55;97832.75;233611;180;150182;-62
2024/03/26 13:51:33;;;;;;;1.40;0.80;;;;;;;20.07;27.13;97828.96;233249;180;136653;-61
2024/03/26 13:56:36;;;;;;;4.20;1.40;;;;;;;19.78;27.40;97817.88;233508;174;140127;-62
2024/03/26 14:01:43;;;;;;;4.40;1.20;;;;;;;19.64;27.78;97804.27;233604;177;149642;-61
2024/03/26 14:06:47;;;;;;;2.30;1.20;;;;;;;19.33;27.84;97797.80;233397;169;136731;-61
2024/03/26 14:11:50;;;;;;;2.00;0.90;;;;;;;18.94;27.26;97797.42;233571;180;269942;-64
2024/03/26 14:16:53;;;;;;;2.20;0.90;;;;;;;18.51;27.32;97796.62;233572;170;149882;-64
2024/03/26 14:21:57;;;;;;;5.00;1.20;;;;;;;18.12;27.77;97785.41;233453;180;137255;-64
2024/03/26 14:27:01;;;;;;;3.00;1.10;;;;;;;17.81;28.02;97786.89;233342;180;137873;-64
2024/03/26 14:32:04;;;;;;;5.30;1.50;;;;;;;17.66;32.63;97776.89;233473;180;150583;-57
2024/03/26 14:37:07;;;;;;;10.20;2.20;;;;;;;17.75;30.38;97767.36;233430;177;136238;-61
2024/03/26 14:42:10;;;;;;;2.80;1.20;;;;;;;17.44;29.93;97760.20;233521;180;138148;-61
2024/03/26 14:47:13;;;;;;;6.70;1.40;;;;;;;17.18;30.11;97753.71;233508;177;151141;-61
2024/03/26 14:52:16;;;;;;;5.00;1.70;;;;;;;16.96;30.33;97746.42;233543;180;136528;-61
2024/03/26 14:57:19;;;;;;;2.40;1.20;;;;;;;16.82;30.71;97738.34;233505;180;137198;-61
2024/03/26 15:02:22;;;;;;;8.20;1.50;;;;;;;16.64;30.90;97723.34;233502;170;149643;-61
2024/03/26 15:07:25;;;;;;;5.50;1.10;;;;;;;16.53;31.40;97725.48;233550;177;137699;-61
2024/03/26 15:12:29;;;;;;;4.80;1.10;;;;;;;16.41;31.74;97717.33;233538;180;137270;-61
2024/03/26 15:17:32;;;;;;;6.80;1.60;;;;;;;16.28;32.48;97710.35;233450;180;149696;-61
2024/03/26 15:22:35;;;;;;;6.90;1.50;;;;;;;16.17;32.61;97718.11;233382;180;140179;-61
2024/03/26 15:32:59;;;;;;;4.20;1.50;;;;;;;15.94;33.59;97695.98;233483;180;150261;-62
2024/03/26 15:38:02;;;;;;;1.40;1.20;;;;;;;15.81;33.52;97687.89;233550;180;137354;-60
2024/03/26 15:43:05;;;;;;;6.60;1.30;;;;;;;15.65;33.63;97684.19;233480;180;139025;-60
2024/03/26 15:48:08;;;;;;;3.70;1.70;;;;;;;15.53;34.24;97683.06;233432;180;150231;-62
2024/03/26 15:53:11;;;;;;;4.90;1.60;;;;;;;15.49;34.67;97681.73;233406;180;137261;-62
2024/03/26 15:58:14;;;;;;;4.20;1.40;;;;;;;15.42;34.58;97670.33;233441;180;138790;-60
2024/03/26 16:03:17;;;;;;;6.60;1.60;;;;;;;15.30;34.76;97676.70;233503;180;150056;-62
2024/03/26 16:08:21;;;;;;;3.40;1.40;;;;;;;15.26;34.91;97678.35;233566;180;136313;-62
2024/03/26 16:13:24;;;;;;;4.50;1.60;;;;;;;15.21;34.83;97674.23;233557;177;137133;-62
2024/03/26 16:18:27;;;;;;;6.00;1.80;;;;;;;15.15;35.15;97671.09;233502;180;149674;-61
2024/03/26 16:23:32;;;;;;;6.20;1.60;;;;;;;15.09;35.49;97672.55;233510;180;138266;-61
2024/03/26 16:28:38;;;;;;;3.00;1.50;;;;;;;15.02;35.98;97672.83;233545;180;136674;-62
2024/03/26 16:33:43;;;;;;;4.70;2.00;;;;;;;14.93;35.66;97673.00;233486;180;150249;-61
2024/03/26 16:38:46;;;;;;;3.80;1.90;;;;;;;14.81;35.70;97673.01;233540;180;136444;-60
2024/03/26 16:43:49;;;;;;;4.80;2.00;;;;;;;14.74;35.94;97667.56;233525;180;137274;-61
2024/03/26 16:49:03;;;;;;;9.60;2.30;;;;;;;14.64;36.29;97668.09;233581;180;149774;-60
2024/03/26 16:54:06;;;;;;;3.70;2.00;;;;;;;14.58;36.81;97666.70;233574;180;136298;-62
2024/03/26 16:59:09;;;;;;;8.00;2.30;;;;;;;14.50;36.96;97664.84;233587;181;136880;-62
2024/03/26 17:04:13;;;;;;;5.70;2.40;;;;;;;14.40;37.01;97662.23;233563;180;150159;-64
2024/03/26 17:09:16;;;;;;;7.10;2.30;;;;;;;14.36;37.22;97661.41;233535;180;137835;-63
2024/03/26 17:14:19;;;;;;;5.20;2.40;;;;;;;14.27;37.29;97658.91;233604;180;137403;-64
2024/03/26 17:19:22;;;;;;;7.20;2.70;;;;;;;14.15;37.54;97657.73;233512;180;152309;-64
2024/03/26 17:24:25;;;;;;;8.30;2.90;;;;;;;14.03;37.92;97658.77;233540;180;137361;-64
2024/03/26 17:29:29;;;;;;;6.00;2.70;;;;;;;13.96;38.06;97661.23;233542;180;136278;-62
2024/03/26 17:34:32;;;;;;;8.70;2.90;;;;;;;13.90;38.37;97659.30;233563;181;149858;-63
2024/03/26 17:39:35;;;;;;;7.80;2.50;;;;;;;13.82;38.81;97660.52;233500;180;138769;-62
2024/03/26 17:44:38;;;;;;;9.60;3.00;;;;;;;13.76;39.06;97663.35;233552;180;136388;-62
2024/03/26 17:49:41;;;;;;;6.70;3.20;;;;;;;13.66;38.98;97663.60;233507;180;150873;-64
2024/03/26 17:54:45;;;;;;;9.00;3.50;;;;;;;13.57;39.32;97666.71;233488;180;136301;-64
2024/03/26 17:59:49;;;;;;;11.50;3.80;;;;;;;13.53;39.48;97664.73;233499;180;136282;-63
2024/03/26 18:04:52;;;;;;;9.70;4.30;;;;;;;13.49;39.52;97668.52;233516;180;150714;-63
2024/03/26 18:09:55;;;;;;;9.90;3.80;;;;;;;13.46;39.79;97670.73;233502;180;137853;-63
2024/03/26 18:14:58;;;;;;;11.80;4.20;;;;;;;13.39;40.15;97678.15;233472;180;137435;-64
2024/03/26 18:20:01;;;;;;;15.20;5.00;;;;;;;13.29;40.48;97675.91;233698;180;151903;-62
2024/03/26 18:25:05;;;;;;;10.60;5.50;;;;;;;13.22;40.75;97676.73;233473;181;137034;-61
2024/03/26 18:30:09;;;;;;;14.20;5.50;;;;;;;13.15;40.92;97673.98;233563;180;137796;-63
2024/03/26 18:35:12;;;;;;;15.90;6.30;;;;;;;13.09;40.89;97676.20;233466;180;150660;-62
2024/03/26 18:40:15;;;;;;;14.80;6.50;;;;;;;13.06;40.90;97678.65;233453;180;136682;-62
2024/03/26 18:45:18;;;;;;;17.60;5.20;;;;;;;13.02;41.19;97680.14;233450;180;138901;-64
2024/03/26 18:50:20;;;;;;;19.60;5.80;;;;;;;12.99;41.35;97677.30;233503;180;151010;-67
2024/03/26 18:55:24;;;;;;;16.20;5.10;;;;;;;12.90;41.50;97675.08;233435;180;136729;-64
2024/03/26 19:00:34;;;;;;;22.80;8.10;;;;;;;12.82;42.00;97671.58;233535;180;137617;-63
2024/03/26 19:05:37;;;;;;;13.40;4.40;;;;;;;12.84;41.97;97660.73;233511;180;150092;-62
2024/03/26 19:10:41;;;;;;;13.60;5.10;;;;;;;12.78;41.88;97651.89;233434;180;137116;-61
2024/03/26 19:15:45;;;;;;;15.70;6.00;;;;;;;12.62;42.79;97654.60;233552;170;143669;-61
2024/03/26 19:20:52;;;;;;;17.80;5.50;;;;;;;12.45;43.17;97651.52;233408;180;149979;-65
2024/03/26 19:26:07;;;;;;;10.10;5.00;;;;;;;12.28;43.81;97648.27;233393;170;138138;-60
2024/03/26 19:31:11;;;;;;;487.70;335.10;;;;;;;12.21;43.83;97643.28;233441;180;137214;-59
2024/03/26 19:36:16;;;;;;;27.90;10.60;;;;;;;12.21;44.28;97639.88;233536;180;149448;-56
2024/03/26 19:41:19;;;;;;;;;;;;;;;12.09;44.25;97644.16;233511;180;141461;-57
2024/03/26 19:46:22;;;;;;;16.40;7.00;;;;;;;11.95;44.54;97650.40;233506;180;136292;-57
2024/03/26 19:51:26;;;;;;;47.40;29.30;;;;;;;11.83;44.47;97644.73;233496;180;151162;-57
2024/03/26 19:56:29;;;;;;;20.10;8.50;;;;;;;11.73;44.89;97644.91;233462;180;137263;-58
2024/03/26 20:01:32;;;;;;;18.60;7.40;;;;;;;11.63;45.28;97647.22;233517;180;137409;-58
2024/03/26 20:06:35;;;;;;;135.50;91.30;;;;;;;11.61;46.42;97643.39;233474;180;151255;-55
2024/03/26 20:11:38;;;;;;;18.50;8.20;;;;;;;11.65;45.96;97642.60;233479;180;139688;-58
2024/03/26 20:16:41;;;;;;;17.50;7.60;;;;;;;11.55;45.63;97637.20;233516;177;137288;-58
2024/03/26 20:21:52;;;;;;;17.90;7.40;;;;;;;11.43;46.00;97628.34;233462;180;151071;-58
2024/03/26 20:26:56;;;;;;;21.50;7.80;;;;;;;11.27;46.61;97624.80;233511;180;136577;-59
2024/03/26 20:32:00;;;;;;;19.10;7.40;;;;;;;11.11;47.04;97617.15;233537;180;138272;-57
2024/03/26 20:37:03;;;;;;;19.50;7.30;;;;;;;10.97;47.40;97613.38;233509;180;153135;-58
2024/03/26 20:42:06;;;;;;;19.10;8.50;;;;;;;10.87;47.78;97618.85;233588;180;137171;-57
2024/03/26 20:47:10;;;;;;;13.40;7.00;;;;;;;10.79;47.87;97622.76;233511;173;250846;-58
2024/03/26 20:52:13;;;;;;;13.70;6.70;;;;;;;10.74;48.11;97618.35;233568;180;153148;-58
2024/03/26 20:57:16;;;;;;;11.80;6.70;;;;;;;10.69;48.43;97618.13;233544;180;138711;-57
2024/03/26 21:02:19;;;;;;;17.00;7.00;;;;;;;10.59;49.09;97608.95;233496;180;137955;-58
2024/03/26 21:07:23;;;;;;;14.90;7.20;;;;;;;10.51;49.43;97606.34;233527;181;151172;-55
2024/03/26 21:12:26;;;;;;;11.30;6.90;;;;;;;10.47;49.37;97617.17;233562;180;136625;-58
2024/03/26 21:17:29;;;;;;;13.70;7.00;;;;;;;10.43;49.47;97616.95;233526;181;136880;-56
2024/03/26 21:22:32;;;;;;;16.70;6.90;;;;;;;10.37;49.77;97611.37;233504;180;152104;-58
2024/03/26 21:27:35;;;;;;;15.10;6.80;;;;;;;10.31;50.01;97606.95;233494;180;138145;-57
2024/03/26 21:32:38;;;;;;;14.60;7.30;;;;;;;10.25;49.90;97604.42;233495;180;137259;-58
2024/03/26 21:37:41;;;;;;;16.00;7.10;;;;;;;10.18;49.97;97596.98;233542;180;151714;-58
2024/03/26 21:42:47;;;;;;;14.30;8.10;;;;;;;10.11;50.28;97585.15;233454;180;138355;-59
2024/03/26 21:47:50;;;;;;;;;;;;;;;10.07;50.25;97582.87;233527;181;138714;-58
2024/03/26 21:52:53;;;;;;;12.30;6.80;;;;;;;10.01;50.51;97575.36;233573;181;152559;-59
2024/03/26 21:57:56;;;;;;;12.70;6.30;;;;;;;9.98;50.44;97576.55;233544;181;138423;-57
2024/03/26 22:02:58;;;;;;;14.60;6.50;;;;;;;9.98;50.31;97575.81;233532;180;137161;-58
2024/03/26 22:08:02;;;;;;;13.30;5.80;;;;;;;9.95;49.91;97575.70;233478;180;151415;-58
2024/03/26 22:13:05;;;;;;;11.50;6.00;;;;;;;9.93;49.80;97582.95;233326;180;136818;-58
2024/03/26 22:18:08;;;;;;;10.70;5.70;;;;;;;9.86;49.87;97581.05;233426;180;140211;-58
2024/03/26 22:23:11;;;;;;;13.50;6.00;;;;;;;9.82;49.89;97580.17;233509;180;151361;-58
2024/03/26 22:28:14;;;;;;;18.90;6.70;;;;;;;9.76;50.05;97585.95;233485;181;136508;-57
2024/03/26 22:33:18;;;;;;;16.90;6.30;;;;;;;9.68;50.24;97577.95;233462;181;138138;-57
2024/03/26 22:38:21;;;;;;;15.20;6.00;;;;;;;9.64;50.24;97572.55;233497;181;151920;-58
2024/03/26 22:43:25;;;;;;;18.90;6.10;;;;;;;9.59;50.52;97571.74;233490;180;137318;-56
2024/03/26 22:48:28;;;;;;;15.00;6.00;;;;;;;9.50;51.20;97573.89;233484;180;137441;-58
2024/03/26 22:53:31;;;;;;;15.60;6.30;;;;;;;9.40;51.20;97565.70;233514;181;151480;-58
2024/03/26 22:58:34;;;;;;;14.20;6.20;;;;;;;9.34;51.21;97563.20;233500;180;136768;-56
2024/03/26 23:03:37;;;;;;;13.60;5.70;;;;;;;9.28;51.17;97555.39;233474;180;137303;-59
2024/03/26 23:08:42;;;;;;;17.70;7.30;;;;;;;9.18;51.11;97554.86;233476;180;153113;-58
2024/03/26 23:13:45;;;;;;;13.40;6.80;;;;;;;9.15;52.06;97548.21;233456;180;137608;-58
2024/03/26 23:18:48;;;;;;;12.50;5.60;;;;;;;9.12;52.26;97553.95;233446;180;137304;-57
2024/03/26 23:23:51;;;;;;;12.00;5.80;;;;;;;9.09;52.27;97555.09;233495;180;152822;-57
2024/03/26 23:28:55;;;;;;;11.00;6.20;;;;;;;9.05;52.69;97557.55;233464;180;137464;-58
2024/03/26 23:33:58;;;;;;;12.60;6.30;;;;;;;8.99;53.10;97559.06;233505;180;136986;-58
2024/03/26 23:39:01;;;;;;;12.10;6.40;;;;;;;8.94;53.02;97561.55;233019;180;152481;-57